Nearby METAR Reports

 

KPMD - Palmdale, California, USA
Distance from station: NNE 12mi, 19km
Updated: Fri, 18-Oct-2019 9:53pm PDT
Clear
Clear
 Wind from WSW
Wind: WSW 13 mph , 20 km/h
Temperature: 59°F , 15°C
Dew Point: 27°F , -3°C
Humidity: 29%
Barometer: 30.00 inHg , 1015.9 hPa
Clouds: Clear
Visibility: 10 miles , 16 km
2019/10/19 04:53 KPMD 190453Z 25011KT 10SM CLR 15/M03 A3000 RMK AO2 SLP144 T01501033
KWJF - Lancaster/Fox, California, USA
Distance from station: N 17mi, 27km
Updated: Fri, 18-Oct-2019 9:56pm PDT
Clear
Clear
 Wind from W
Wind: W 23 mph , 37 km/h, Gust: 29 mph , 46 km/h
Temperature: 59°F , 15°C
Dew Point: 32°F , 0°C
Humidity: 36%
Barometer: 29.99 inHg , 1015.6 hPa
Clouds: Clear
Visibility: 10 miles , 16 km
2019/10/19 04:56 KWJF 190456Z AUTO 28020G25KT 10SM CLR 15/00 A2999 RMK AO2 PK WND 28027/0409 SLP147 T01500000
 
KMWS - Mount Wilson, California, USA
Distance from station: SSE 18mi, 30km
Updated: Wed, 13-May-2015 6:45am PDT
NOT Current

 Wind from S
Wind: S 3 mph , 6 km/h, Gust: 5 mph , 7 km/h
Temperature: 43°F , 6°C
Dew Point: -0°F , -18°C
Humidity: 16%
2015/05/13 13:45 KMWS 131345Z 18003G04KT 06/M18 RMK SNOW DEPTH 1.00
KWHP - La / Whiteman, California, USA
Distance from station: SW 21mi, 34km
Updated: Fri, 18-Oct-2019 8:00pm PDT
NOT Current
Clear
Clear
 Wind from W
Wind: W 8 mph , 13 km/h
Temperature: 73°F , 23°C
Dew Point: 25°F , -4°C
Humidity: 16%
Barometer: 29.92 inHg , 1013.2 hPa
Clouds: Clear
Visibility: 10 miles , 16 km
2019/10/19 03:00 KWHP 190300Z 27007KT 10SM SKC 23/M04 A2992
 
KBUR - Burbank, California, USA
Distance from station: SSW 22mi, 35km
Updated: Fri, 18-Oct-2019 9:53pm PDT
Clear
Clear
 Wind from WNW
Wind: WNW 3 mph , 6 km/h
Temperature: 66°F , 19°C
Dew Point: 36°F , 2°C
Humidity: 32%
Barometer: 29.89 inHg , 1012.2 hPa
Clouds: Clear
Visibility: 10 miles , 16 km
2019/10/19 04:53 KBUR 190453Z 30003KT 10SM CLR 19/02 A2989 RMK AO2 SLP112 T01940017 $
KVNY - Van Nuys, California, USA
Distance from station: SW 25mi, 40km
Updated: Fri, 18-Oct-2019 9:51pm PDT
Clear
Clear
 Wind from NNW
Wind: NNW 15 mph , 24 km/h, Gust: 25 mph , 41 km/h
Temperature: 73°F , 23°C
Dew Point: 21°F , -6°C
Humidity: 14%
Barometer: 29.90 inHg , 1012.5 hPa
Clouds: Clear
Visibility: 10 miles , 16 km
2019/10/19 04:51 KVNY 190451Z 34013G22KT 10SM CLR 23/M06 A2990 RMK AO2 SLP116 T02281056 $
 
KEDW - Edwards Afb, California, USA
Distance from station: NNE 33mi, 53km
Updated: Fri, 18-Oct-2019 9:58pm PDT
Clear
Clear
 Wind from SW
Wind: SW 12 mph , 19 km/h
Temperature: 59°F , 15°C
Dew Point: 27°F , -3°C
Humidity: 29%
Barometer: 29.95 inHg , 1014.2 hPa
Clouds: Clear
Visibility: 50 miles , 80 km
2019/10/19 04:58 KEDW 190458Z 23010KT 50SM CLR 15/M03 A2995 RMK AO2A SLP133 T01451029
KSMO - Santa Monica, California, USA
Distance from station: SSW 35mi, 57km
Updated: Fri, 18-Oct-2019 9:51pm PDT
Clear
Clear
 Wind from calm
Wind: Calm
Temperature: 63°F , 17°C
Dew Point: 55°F , 13°C
Humidity: 77%
Barometer: 29.88 inHg , 1011.9 hPa
Clouds: Clear
Visibility: 10 miles , 16 km
2019/10/19 04:51 KSMO 190451Z AUTO 00000KT 10SM CLR 17/13 A2988 RMK AO2 SLP118 T01720133
 
KLAX - Los Angeles, California, USA
Distance from station: SSW 39mi, 63km
Updated: Fri, 18-Oct-2019 9:53pm PDT
Clear
Clear
 Wind from WSW
Wind: WSW 5 mph , 7 km/h
Temperature: 66°F , 19°C
Dew Point: 57°F , 14°C
Humidity: 73%
Barometer: 29.88 inHg , 1011.9 hPa
Clouds: Clear
Visibility: 10 miles , 16 km
2019/10/19 04:53 KLAX 190453Z 25004KT 10SM CLR 19/14 A2988 RMK AO2 SLP117 T01890139 $
KMHV - Mojave, California, USA
Distance from station: N 41mi, 66km
Updated: Fri, 18-Oct-2019 10:00pm PDT
Clear
Clear
 Wind from NW
Wind: NW 21 mph , 33 km/h, Gust: 29 mph , 46 km/h
Temperature: 59°F , 15°C
Dew Point: 25°F , -4°C
Humidity: 27%
Barometer: 29.95 inHg , 1014.2 hPa
Clouds: Clear
Visibility: 10 miles , 16 km
2019/10/19 05:00 KMHV 190500Z AUTO 31018G25KT 10SM CLR 15/M04 A2995 RMK A01
 
KFUL - Fullerton, California, USA
Distance from station: SSE 44mi, 70km
Updated: Fri, 18-Oct-2019 9:53pm PDT
Clear
Clear
 Wind from E
Wind: E 5 mph , 7 km/h
Temperature: 64°F , 18°C
Dew Point: 52°F , 11°C
Humidity: 64%
Barometer: 29.88 inHg , 1011.9 hPa
Clouds: Clear
Visibility: 10 miles , 16 km
2019/10/19 04:53 KFUL 190453Z AUTO 10004KT 10SM CLR 18/11 A2988 RMK AO2 SLP117 T01830106
KONT - Ontario, California, USA
Distance from station: SE 45mi, 72km
Updated: Fri, 18-Oct-2019 9:53pm PDT
Clear
Clear
 Wind from calm
Wind: Calm
Temperature: 66°F , 19°C
Dew Point: 41°F , 5°C
Humidity: 40%
Barometer: 29.91 inHg , 1012.9 hPa
Clouds: Clear
Visibility: 10 miles , 16 km
2019/10/19 04:53 KONT 190453Z 00000KT 10SM CLR 19/05 A2991 RMK AO2 SLP118 T01940050
 
KLGB - Long Beach, California, USA
Distance from station: S 46mi, 74km
Updated: Fri, 18-Oct-2019 9:53pm PDT
Clear
Clear
 Wind from NW
Wind: NW 3 mph , 6 km/h
Temperature: 68°F , 20°C
Dew Point: 54°F , 12°C
Humidity: 60%
Barometer: 29.88 inHg , 1011.9 hPa
Clouds: Clear
Visibility: 10 miles , 16 km
2019/10/19 04:53 KLGB 190453Z 31003KT 10SM CLR 20/12 A2988 RMK AO2 SLP119 T02000122
KVCV - Victorville, California, USA
Distance from station: E 46mi, 74km
Updated: Fri, 18-Oct-2019 7:45pm PDT
NOT Current
Clear
Clear
 Wind from WSW
Wind: WSW 12 mph , 19 km/h
Barometer: 29.98 inHg , 1015.2 hPa
Clouds: Clear
Visibility: 10 miles , 16 km
2019/10/19 02:45 KVCV 190245Z 24010KT 10SM SKC A2998
 
KTSP - Tehachapi, California, USA
Distance from station: NNW 48mi, 77km
Updated: Fri, 18-Oct-2019 10:15pm PDT
Clear
Clear
 Wind from WNW
Wind: WNW 8 mph , 13 km/h
Temperature: 45°F , 7°C
Wind Chill: 41°F , 5°C
Dew Point: 32°F , 0°C
Humidity: 61%
Barometer: 30.09 inHg , 1019 hPa
Clouds: Clear
Visibility: 10 miles , 16 km
2019/10/19 05:15 KTSP 190515Z AUTO 29007KT 10SM CLR 07/00 A3009 RMK AO2